Time;durP1;ratioP1;P1;durP2;ratioP2;P2;SDS_P1;SDS_P2;PMS_P1;PMS_P2;Temp;Humidity;BMP_temperature;BMP_pressure;BME280_temperature;BME280_humidity;BME280_pressure;Samples;Min_cycle;Max_cycle;Signal;HPM_P1;HPM_P2
2022/06/03 00:01:37;;;;;;;5.70;1.80;;;;;;;18.62;84.82;100230.73;1761650;81;21189;-84
2022/06/03 00:05:24;;;;;;;6.10;1.62;;;;;;;18.54;85.62;100224.14;1762116;81;21176;-84
2022/06/03 00:09:05;;;;;;;7.55;1.70;;;;;;;18.50;86.27;100220.68;1761148;81;21177;-84
2022/06/03 00:12:34;;;;;;;7.97;2.12;;;;;;;18.43;86.84;100223.50;1760584;81;21153;-84
2022/06/03 00:16:13;;;;;;;6.78;1.45;;;;;;;18.39;87.04;100225.03;1762170;81;21703;-84
2022/06/03 00:19:53;;;;;;;4.70;1.77;;;;;;;18.35;87.21;100213.59;1760574;81;21169;-83
2022/06/03 00:23:38;;;;;;;8.18;2.08;;;;;;;18.37;87.29;100207.27;1761534;81;21224;-83
2022/06/03 00:27:11;;;;;;;10.13;2.02;;;;;;;18.43;86.99;100204.66;1762030;81;21157;-84
2022/06/03 00:30:40;;;;;;;5.20;1.80;;;;;;;18.46;86.71;100210.59;1720528;83;21279;-84
2022/06/03 00:34:28;;;;;;;6.42;1.50;;;;;;;18.49;86.34;100212.03;1704256;83;21192;-84
2022/06/03 00:38:02;;;;;;;4.50;1.67;;;;;;;18.48;85.83;100206.20;1761974;81;21197;-84
2022/06/03 00:41:31;;;;;;;4.97;1.80;;;;;;;18.43;85.65;100200.50;1762045;81;21161;-84
2022/06/03 00:44:58;;;;;;;5.87;1.60;;;;;;;18.38;85.84;100196.50;1740744;82;21278;-84
2022/06/03 00:48:43;;;;;;;3.70;1.90;;;;;;;18.37;85.97;100196.73;1760731;81;21189;-84
2022/06/03 00:52:20;;;;;;;7.80;1.60;;;;;;;18.36;85.93;100193.67;1762096;81;21181;-84
2022/06/03 00:55:50;;;;;;;8.60;2.00;;;;;;;18.32;86.08;100191.89;1743808;81;21157;-84
2022/06/03 00:59:26;;;;;;;9.38;2.10;;;;;;;18.26;86.42;100191.44;1760714;81;21182;-84
2022/06/03 01:02:55;;;;;;;6.67;1.65;;;;;;;18.23;86.59;100191.04;1761773;81;22184;-84
2022/06/03 01:06:29;;;;;;;5.42;1.90;;;;;;;18.19;86.77;100189.27;1761586;81;21157;-84
2022/06/03 01:09:44;;;;;;;4.75;1.70;;;;;;;18.18;86.89;100189.50;1761422;81;21753;-83
2022/06/03 01:13:18;;;;;;;4.62;1.75;;;;;;;18.12;87.05;100183.80;1761068;81;21722;-77
2022/06/03 01:16:47;;;;;;;7.97;2.30;;;;;;;18.10;87.70;100187.32;1762447;81;21165;-77
2022/06/03 01:20:25;;;;;;;7.45;2.10;;;;;;;18.08;88.15;100178.95;1760679;81;21207;-77
2022/06/03 01:24:16;;;;;;;6.05;2.10;;;;;;;18.09;88.07;100172.34;1761593;81;21185;-77
2022/06/03 01:27:55;;;;;;;10.08;2.05;;;;;;;18.08;87.80;100172.87;1762458;81;21188;-77
2022/06/03 01:31:33;;;;;;;4.10;1.55;;;;;;;18.08;87.59;100174.27;1762559;81;21133;-77
2022/06/03 01:35:00;;;;;;;7.22;1.70;;;;;;;18.06;87.55;100180.55;1756133;81;21150;-77
2022/06/03 01:38:40;;;;;;;6.42;1.60;;;;;;;18.04;87.52;100181.87;1762516;81;21204;-77
2022/06/03 01:42:00;;;;;;;;;;;;;;;18.01;87.58;100179.00;1764849;81;21204;-77
2022/06/03 01:45:32;;;;;;;3.35;1.80;;;;;;;17.99;87.70;100181.17;1740657;81;20584;-77
2022/06/03 01:48:54;;;;;;;6.08;1.98;;;;;;;17.97;87.81;100176.37;1761227;81;21778;-77
2022/06/03 01:52:33;;;;;;;7.05;1.95;;;;;;;17.94;87.86;100190.69;1762304;81;21157;-77
2022/06/03 01:56:04;;;;;;;7.87;2.00;;;;;;;17.93;87.96;100187.62;1762545;81;21145;-77
2022/06/03 01:59:25;;;;;;;8.08;1.85;;;;;;;17.90;88.03;100196.37;1761206;81;21169;-77
2022/06/03 02:02:51;;;;;;;6.72;2.02;;;;;;;17.87;88.00;100192.66;1762221;81;21177;-77
2022/06/03 02:06:22;;;;;;;5.12;2.00;;;;;;;17.86;88.09;100199.27;1762618;81;21161;-77
2022/06/03 02:09:47;;;;;;;;;;;;;;;17.87;88.15;100208.72;1764654;81;21142;-77
2022/06/03 02:13:12;;;;;;;6.75;2.30;;;;;;;17.88;88.37;100202.14;1761060;81;20167;-77
2022/06/03 02:16:50;;;;;;;8.60;1.98;;;;;;;17.96;88.61;100213.97;1762447;81;21153;-77
2022/06/03 02:20:40;;;;;;;6.15;2.08;;;;;;;18.05;88.33;100207.08;1760963;81;21146;-77
2022/06/03 02:23:54;;;;;;;3.60;1.42;;;;;;;18.21;87.91;100212.55;1761332;81;21797;-77
2022/06/03 02:27:36;;;;;;;9.08;2.05;;;;;;;18.40;87.03;100212.91;1762304;81;21721;-77
2022/06/03 02:31:07;;;;;;;5.75;1.90;;;;;;;18.58;86.04;100209.27;1762528;81;21747;-77
2022/06/03 02:34:36;;;;;;;8.90;2.00;;;;;;;18.86;84.89;100219.28;1762353;81;21157;-77
2022/06/03 02:38:07;;;;;;;5.65;2.00;;;;;;;19.17;83.58;100220.16;1762621;81;21188;-77
2022/06/03 02:41:41;;;;;;;4.17;1.77;;;;;;;19.48;82.38;100224.63;1762456;81;21145;-77
2022/06/03 02:45:23;;;;;;;5.05;1.90;;;;;;;19.83;80.89;100222.48;1762531;81;21134;-77
2022/06/03 02:49:05;;;;;;;8.75;1.45;;;;;;;20.27;79.05;100222.98;1762551;81;21158;-77
2022/06/03 02:52:51;;;;;;;7.60;2.05;;;;;;;20.70;76.86;100218.97;1762501;81;21184;-77
2022/06/03 02:56:19;;;;;;;9.50;1.75;;;;;;;21.13;75.00;100222.12;1762389;81;21181;-77
2022/06/03 02:59:39;;;;;;;4.30;1.50;;;;;;;21.52;72.23;100227.05;1760973;81;21905;-78
2022/06/03 03:02:35;;;;;;;6.05;1.75;;;;;;;21.81;70.91;100237.58;1762146;81;21164;-78
2022/06/03 03:06:19;;;;;;;9.55;1.85;;;;;;;22.12;69.76;100237.58;1761134;81;21236;-77
2022/06/03 03:10:06;;;;;;;8.88;1.95;;;;;;;22.40;68.22;100240.80;1762547;81;21158;-77
2022/06/03 03:13:42;;;;;;;10.30;1.90;;;;;;;22.62;67.18;100245.84;1762430;81;21181;-78
2022/06/03 03:17:24;;;;;;;16.85;1.90;;;;;;;22.88;65.71;100237.84;1761060;81;21180;-77
2022/06/03 03:20:58;;;;;;;5.20;1.30;;;;;;;23.06;65.26;100243.13;1762682;81;21146;-78
2022/06/03 03:24:38;;;;;;;7.65;1.92;;;;;;;23.25;64.23;100239.99;1762448;81;21299;-77
2022/06/03 03:28:25;;;;;;;3.67;1.37;;;;;;;23.33;63.21;100246.48;1762513;81;21193;-78
2022/06/03 03:32:07;;;;;;;5.58;1.98;;;;;;;23.29;63.22;100250.37;1761681;81;21189;-77
2022/06/03 03:35:31;;;;;;;9.83;2.37;;;;;;;23.35;63.94;100258.23;1762301;81;21750;-77
2022/06/03 03:39:21;;;;;;;3.30;1.60;;;;;;;23.58;63.53;100252.35;1762282;81;21220;-77
2022/06/03 03:42:52;;;;;;;6.03;1.65;;;;;;;23.86;63.15;100252.66;1775745;81;21185;-77
2022/06/03 03:46:35;;;;;;;15.45;2.02;;;;;;;24.06;62.06;100265.95;1777173;81;21741;-77
2022/06/03 03:50:20;;;;;;;7.10;2.10;;;;;;;24.10;61.62;100264.87;1776797;81;21193;-77
2022/06/03 03:53:56;;;;;;;3.77;1.70;;;;;;;24.11;61.07;100260.41;1777039;81;21231;-77
2022/06/03 03:57:28;;;;;;;6.47;2.22;;;;;;;24.12;60.58;100266.83;1777742;80;21150;-77
2022/06/03 04:00:58;;;;;;;4.90;1.50;;;;;;;24.02;59.92;100270.38;1774493;80;21157;-77
2022/06/03 04:04:19;;;;;;;13.32;2.55;;;;;;;23.91;60.67;100274.20;1777770;80;22074;-77
2022/06/03 04:07:42;;;;;;;4.67;1.80;;;;;;;23.80;61.33;100273.80;1784092;80;21164;-77
2022/06/03 04:11:23;;;;;;;7.10;1.50;;;;;;;23.76;61.71;100280.48;1784843;80;21188;-83
2022/06/03 04:15:10;;;;;;;11.10;2.10;;;;;;;23.77;61.82;100284.96;1785604;80;21149;-77
2022/06/03 04:18:54;;;;;;;6.90;1.98;;;;;;;23.84;61.57;100282.78;1784372;80;21252;-84
2022/06/03 04:22:10;;;;;;;8.73;2.10;;;;;;;23.92;60.99;100282.86;1784507;80;21690;-79
2022/06/03 04:25:35;;;;;;;13.50;2.92;;;;;;;23.94;60.91;100276.44;1784139;80;21129;-79
2022/06/03 04:28:46;;;;;;;13.88;2.47;;;;;;;23.97;60.91;100281.52;1771856;80;21157;-79
2022/06/03 04:32:13;;;;;;;10.35;2.02;;;;;;;24.05;61.00;100285.78;1784342;80;21236;-79
2022/06/03 04:35:50;;;;;;;13.50;2.10;;;;;;;24.18;60.45;100286.18;1784139;80;21180;-79
2022/06/03 04:39:42;;;;;;;11.85;3.12;;;;;;;24.32;59.60;100289.34;1785425;80;21208;-78
2022/06/03 04:43:17;;;;;;;5.80;1.98;;;;;;;24.46;60.14;100290.59;1776872;80;21698;-79
2022/06/03 04:46:43;;;;;;;5.08;1.60;;;;;;;24.66;59.22;100293.27;1771343;80;21184;-78
2022/06/03 04:50:32;;;;;;;5.65;1.80;;;;;;;24.83;59.02;100290.27;1776947;80;21201;-79
2022/06/03 04:54:19;;;;;;;8.75;2.05;;;;;;;24.99;58.21;100301.28;1784011;80;21168;-86
2022/06/03 04:57:55;;;;;;;15.10;2.17;;;;;;;25.25;58.08;100287.43;1783048;80;21181;-79
2022/06/03 05:01:13;;;;;;;12.15;1.87;;;;;;;25.48;56.63;100294.51;1767070;80;21703;-79
2022/06/03 05:05:13;;;;;;;10.47;2.00;;;;;;;25.60;56.04;100291.48;1782409;80;21185;-79
2022/06/03 05:09:00;;;;;;;7.70;2.62;;;;;;;25.71;55.86;100289.81;1779662;80;21725;-79
2022/06/03 05:12:43;;;;;;;12.18;1.95;;;;;;;25.76;55.68;100289.57;1771578;80;21232;-79
2022/06/03 05:16:35;;;;;;;9.18;1.77;;;;;;;25.80;55.66;100287.34;1762104;80;21145;-79
2022/06/03 05:20:07;;;;;;;8.20;2.30;;;;;;;25.80;55.44;100293.50;1782650;80;21778;-79
2022/06/03 05:23:37;;;;;;;12.78;2.47;;;;;;;25.82;55.79;100295.45;1779780;80;21208;-79
2022/06/03 05:26:47;;;;;;;11.75;1.90;;;;;;;25.96;54.72;100293.79;1784975;80;21600;-79
2022/06/03 05:30:27;;;;;;;3.80;1.70;;;;;;;26.11;54.64;100293.83;1778129;80;21172;-79
2022/06/03 05:33:45;;;;;;;10.95;1.95;;;;;;;26.34;54.38;100298.00;1761283;81;21474;-79
2022/06/03 05:37:27;;;;;;;16.67;2.33;;;;;;;26.63;52.36;100302.52;1776007;80;21176;-80
2022/06/03 05:40:58;;;;;;;16.45;2.12;;;;;;;26.83;51.95;100300.22;1772577;79;21166;-79
2022/06/03 05:44:37;;;;;;;13.32;2.00;;;;;;;26.83;51.95;100300.22;1731873;82;21200;-79
2022/06/03 05:47:59;;;;;;;14.50;2.27;;;;;;;27.14;51.36;100312.77;1716836;83;22018;-79
2022/06/03 05:51:23;;;;;;;10.78;1.77;;;;;;;27.14;51.36;100312.77;1699619;83;21223;-79
2022/06/03 05:54:43;;;;;;;7.87;2.25;;;;;;;27.38;50.71;100327.83;1708036;83;21174;-79
2022/06/03 05:58:35;;;;;;;8.80;2.35;;;;;;;27.38;50.71;100327.83;1723791;81;21790;-80
2022/06/03 06:02:05;;;;;;;13.05;2.52;;;;;;;27.52;49.50;100328.05;1719765;82;21164;-78
2022/06/03 06:05:25;;;;;;;10.90;2.40;;;;;;;27.77;47.65;100329.94;1721874;83;21758;-79
2022/06/03 06:08:55;;;;;;;10.30;2.33;;;;;;;27.96;48.02;100321.66;1718908;82;21815;-79
2022/06/03 06:12:26;;;;;;;11.35;2.37;;;;;;;28.16;49.35;100334.16;1723455;82;22143;-78
2022/06/03 06:15:57;;;;;;;8.60;2.00;;;;;;;28.07;50.62;100336.48;1714267;82;21176;-79
2022/06/03 06:19:37;;;;;;;7.28;1.82;;;;;;;27.93;52.69;100341.91;1726163;82;21249;-78
2022/06/03 06:22:46;;;;;;;14.33;2.47;;;;;;;27.71;55.18;100338.97;1726221;82;21520;-78
2022/06/03 06:26:10;;;;;;;6.97;2.02;;;;;;;27.52;56.27;100332.27;1718256;82;21349;-77
2022/06/03 06:29:38;;;;;;;7.67;1.95;;;;;;;27.37;56.63;100336.56;1723208;81;21733;-78
2022/06/03 06:33:20;;;;;;;10.32;2.08;;;;;;;27.29;56.77;100339.95;1722703;82;21185;-79
2022/06/03 06:36:50;;;;;;;8.80;2.00;;;;;;;27.26;58.92;100338.58;1731676;82;21754;-80
2022/06/03 06:40:22;;;;;;;8.28;2.10;;;;;;;27.09;58.99;100335.25;1728076;82;21762;-79
2022/06/03 06:44:06;;;;;;;7.55;2.10;;;;;;;26.79;60.04;100355.22;1724363;82;21366;-78
2022/06/03 06:47:09;;;;;;;12.20;2.20;;;;;;;26.66;60.52;100356.63;1717839;82;21877;-78
2022/06/03 06:50:30;;;;;;;8.70;2.10;;;;;;;26.65;60.37;100362.53;1710799;82;21356;-78
2022/06/03 06:53:53;;;;;;;9.73;2.45;;;;;;;26.65;59.83;100359.73;1701776;83;21244;-79
2022/06/03 06:57:05;;;;;;;7.95;2.00;;;;;;;26.67;59.65;100365.31;1699130;82;21172;-78
2022/06/03 07:00:16;;;;;;;11.75;2.40;;;;;;;26.67;59.55;100363.91;1719715;82;21695;-79
2022/06/03 07:04:08;;;;;;;8.63;1.77;;;;;;;26.68;58.39;100367.03;1703783;83;21716;-78
2022/06/03 07:07:20;;;;;;;10.30;2.33;;;;;;;26.69;58.73;100377.12;1705590;83;21201;-78
2022/06/03 07:10:36;;;;;;;7.42;1.98;;;;;;;26.70;57.67;100373.19;1706513;82;21167;-78
2022/06/03 07:13:58;;;;;;;12.58;2.52;;;;;;;26.78;57.82;100367.58;1698596;83;22150;-78
2022/06/03 07:21:07;;;;;;;7.92;1.75;;;;;;;27.01;56.94;100365.57;1707763;83;21161;-79
2022/06/03 07:24:27;;;;;;;13.08;2.62;;;;;;;27.14;56.69;100364.14;1683195;84;21800;-78
2022/06/03 07:27:53;;;;;;;13.83;2.85;;;;;;;27.33;56.02;100363.53;1663929;84;21207;-78
2022/06/03 07:30:53;;;;;;;12.80;2.45;;;;;;;27.33;56.02;100363.53;1690189;84;21162;-79
2022/06/03 07:34:02;;;;;;;17.55;3.80;;;;;;;27.37;56.19;100363.23;1691556;84;21798;-79
2022/06/03 07:37:13;;;;;;;12.18;2.80;;;;;;;27.43;56.85;100359.27;1709827;82;21159;-78
2022/06/03 07:40:37;;;;;;;11.15;2.62;;;;;;;27.57;56.33;100367.39;1708164;83;21161;-78
2022/06/03 07:43:59;;;;;;;12.65;3.10;;;;;;;27.60;56.51;100351.91;1685175;83;21187;-80
2022/06/03 07:47:10;;;;;;;16.57;2.80;;;;;;;27.65;56.31;100363.11;1707048;83;21213;-79
2022/06/03 07:50:21;;;;;;;11.03;3.22;;;;;;;27.69;55.11;100348.77;1699130;83;21827;-79
2022/06/03 07:53:51;;;;;;;13.08;2.30;;;;;;;27.69;55.11;100348.77;1709874;82;21203;-79
2022/06/03 07:56:57;;;;;;;22.17;2.70;;;;;;;27.72;54.35;100343.45;1703036;81;21123;-80
2022/06/03 08:00:08;;;;;;;9.13;2.08;;;;;;;27.81;53.60;100348.44;1673533;83;21639;-80
2022/06/03 08:03:30;;;;;;;9.68;2.15;;;;;;;27.95;52.50;100348.09;1703570;84;21244;-79
2022/06/03 08:13:49;;;;;;;9.00;1.95;;;;;;;28.11;52.97;100342.63;1719118;82;21555;-79
2022/06/03 08:16:57;;;;;;;9.88;2.00;;;;;;;28.19;53.35;100353.27;1722410;82;21181;-79
2022/06/03 08:20:04;;;;;;;17.92;2.70;;;;;;;28.41;52.52;100359.02;1735473;82;21181;-79
2022/06/03 08:23:11;;;;;;;7.37;2.20;;;;;;;28.41;52.52;100359.02;1734133;80;22127;-79
2022/06/03 08:26:26;;;;;;;11.78;2.80;;;;;;;28.46;51.01;100349.13;1739806;80;21217;-79
2022/06/03 08:29:50;;;;;;;17.45;3.85;;;;;;;28.46;51.00;100356.16;1732050;80;21163;-78
2022/06/03 08:33:06;;;;;;;14.50;3.62;;;;;;;28.42;51.48;100348.91;1715089;82;21852;-79
2022/06/03 08:36:14;;;;;;;10.68;3.55;;;;;;;28.34;51.49;100362.72;1732638;82;21189;-78
2022/06/03 08:39:29;;;;;;;12.03;4.05;;;;;;;28.25;54.28;100367.55;1711113;83;21741;-78
2022/06/03 08:42:55;;;;;;;12.70;4.12;;;;;;;28.08;55.94;100364.86;1706925;83;21173;-79
2022/06/03 08:46:29;;;;;;;16.10;4.92;;;;;;;28.08;55.94;100364.86;1700259;83;21187;-77
2022/06/03 08:49:39;;;;;;;13.68;5.22;;;;;;;28.07;55.63;100361.22;1745574;82;21176;-78
2022/06/03 08:52:56;;;;;;;15.63;5.00;;;;;;;28.08;55.49;100357.27;1706362;83;21213;-79
2022/06/03 08:56:12;;;;;;;8.43;4.60;;;;;;;28.12;54.46;100359.77;1718603;83;21771;-79
2022/06/03 08:59:31;;;;;;;13.65;4.30;;;;;;;28.16;55.23;100366.50;1707377;83;21193;-77
2022/06/03 09:02:40;;;;;;;16.42;4.55;;;;;;;28.16;55.50;100365.09;1717117;83;21236;-79
2022/06/03 09:05:51;;;;;;;17.50;5.28;;;;;;;28.09;55.52;100373.03;1726123;82;21156;-79
2022/06/03 09:09:03;;;;;;;14.23;4.50;;;;;;;28.07;54.25;100386.52;1720530;82;21149;-79
2022/06/03 09:12:16;;;;;;;18.87;4.80;;;;;;;28.07;54.25;100386.52;1739042;82;21233;-78
2022/06/03 09:15:27;;;;;;;13.48;4.50;;;;;;;28.05;54.31;100385.98;1742996;82;21188;-79
2022/06/03 09:18:56;;;;;;;17.82;4.95;;;;;;;27.99;53.82;100406.80;1698429;83;21184;-77
2022/06/03 09:22:02;;;;;;;21.70;5.17;;;;;;;27.99;53.82;100406.80;1686727;83;21200;-79
2022/06/03 09:25:10;;;;;;;12.82;4.50;;;;;;;27.97;53.86;100398.66;1745481;82;21160;-78
2022/06/03 09:28:15;;;;;;;13.75;5.28;;;;;;;27.95;53.80;100400.10;1718387;83;21237;-79
2022/06/03 09:31:21;;;;;;;16.93;4.85;;;;;;;28.00;54.71;100407.09;1679913;83;21152;-79
2022/06/03 09:34:28;;;;;;;14.03;4.65;;;;;;;27.99;54.33;100399.77;1712922;82;21239;-79
2022/06/03 09:37:39;;;;;;;14.30;5.22;;;;;;;27.95;54.60;100395.31;1747051;82;21188;-78
2022/06/03 09:40:50;;;;;;;14.25;5.53;;;;;;;27.99;54.62;100407.63;1728824;82;21794;-78
2022/06/03 09:43:57;;;;;;;13.65;5.10;;;;;;;27.96;54.16;100411.05;1738831;82;21810;-79
2022/06/03 09:47:12;;;;;;;14.25;5.33;;;;;;;27.99;53.88;100411.02;1716311;82;21194;-78
2022/06/03 09:50:17;;;;;;;19.23;5.55;;;;;;;27.94;54.15;100407.66;1741620;82;21449;-78
2022/06/03 09:53:33;;;;;;;8.43;3.92;;;;;;;27.94;54.57;100402.61;1712765;82;21637;-78
2022/06/03 09:56:37;;;;;;;10.32;4.35;;;;;;;27.99;52.90;100404.83;1740048;82;21484;-79
2022/06/03 09:59:43;;;;;;;14.43;4.17;;;;;;;27.94;52.92;100411.05;1716583;83;21231;-78
2022/06/03 10:02:52;;;;;;;19.27;3.83;;;;;;;27.93;54.05;100409.38;1721427;82;21177;-78
2022/06/03 10:06:04;;;;;;;17.37;3.08;;;;;;;27.93;54.05;100409.38;1731933;82;21144;-78
2022/06/03 10:12:52;;;;;;;8.95;3.12;;;;;;;28.02;53.25;100385.14;1720926;83;21199;-86
2022/06/03 10:16:03;;;;;;;13.00;2.80;;;;;;;28.02;53.25;100385.14;1707746;83;21183;-87
2022/06/03 10:19:09;;;;;;;11.65;2.87;;;;;;;28.01;54.77;100387.69;1710520;83;21176;-79
2022/06/03 10:22:16;;;;;;;9.68;3.00;;;;;;;28.05;55.22;100383.17;1725749;82;21755;-79
2022/06/03 10:25:21;;;;;;;12.65;3.00;;;;;;;28.11;54.59;100394.65;1711294;83;21742;-78
2022/06/03 10:28:27;;;;;;;14.55;3.55;;;;;;;28.11;55.38;100386.22;1707735;83;21201;-78
2022/06/03 10:31:45;;;;;;;7.58;2.60;;;;;;;28.18;55.00;100399.39;1707812;83;21739;-79
2022/06/03 10:34:50;;;;;;;10.08;2.50;;;;;;;28.28;53.83;100387.23;1681777;83;21173;-79
2022/06/03 10:37:57;;;;;;;15.23;3.15;;;;;;;28.35;54.88;100393.39;1721714;82;21183;-79
2022/06/03 10:41:02;;;;;;;15.93;2.90;;;;;;;28.33;54.33;100391.98;1718885;82;21759;-79
2022/06/03 10:44:08;;;;;;;6.80;2.95;;;;;;;28.19;54.51;100388.42;1713605;82;21245;-78
2022/06/03 10:47:23;;;;;;;14.05;2.47;;;;;;;28.21;53.98;100412.86;1706964;82;21213;-79
2022/06/03 10:50:39;;;;;;;13.75;2.70;;;;;;;28.19;53.36;100384.20;1714693;82;21201;-79
2022/06/03 11:04:05;;;;;;;13.22;2.55;;;;;;;28.42;53.80;100378.44;1722829;82;21210;-80
2022/06/03 11:07:32;;;;;;;16.12;2.80;;;;;;;28.47;52.95;100378.39;1726129;83;21634;-79
2022/06/03 11:10:41;;;;;;;9.95;2.45;;;;;;;28.52;51.05;100379.76;1720710;82;21206;-79
2022/06/03 11:13:48;;;;;;;10.00;2.47;;;;;;;28.54;51.56;100378.05;1709665;83;21241;-79
2022/06/03 11:17:27;;;;;;;14.23;2.37;;;;;;;28.46;50.48;100385.13;1743299;82;21184;-81
2022/06/03 11:20:44;;;;;;;14.33;2.62;;;;;;;28.40;50.59;100391.10;1716666;82;21179;-79
2022/06/03 11:23:49;;;;;;;12.07;2.90;;;;;;;28.37;50.84;100376.20;1744940;82;21195;-78
2022/06/03 11:26:56;;;;;;;18.25;2.95;;;;;;;28.41;50.62;100387.15;1706805;83;21214;-78
2022/06/03 11:30:06;;;;;;;8.70;3.00;;;;;;;28.36;51.72;100375.94;1738164;82;21803;-79
2022/06/03 11:33:17;;;;;;;5.45;2.20;;;;;;;28.40;51.22;100369.44;1693156;83;21228;-79
2022/06/03 11:36:27;;;;;;;10.45;2.45;;;;;;;28.42;51.06;100377.03;1744069;82;22161;-79
2022/06/03 11:39:58;;;;;;;12.80;2.55;;;;;;;28.47;50.69;100367.71;1710777;83;21138;-79
2022/06/03 11:43:27;;;;;;;15.70;2.80;;;;;;;28.58;50.66;100362.83;1724390;83;21194;-80
2022/06/03 11:46:41;;;;;;;6.22;2.20;;;;;;;28.59;48.89;100362.52;1713248;83;21244;-79
2022/06/03 11:49:41;;;;;;;10.93;2.45;;;;;;;28.49;48.16;100367.67;1717015;82;21184;-79
2022/06/03 11:52:33;;;;;;;12.65;2.70;;;;;;;28.42;48.20;100368.59;1733930;82;21244;-79
2022/06/03 11:55:39;;;;;;;11.70;2.62;;;;;;;28.32;48.94;100361.59;1716170;83;21186;-79
2022/06/03 11:58:59;;;;;;;9.25;2.45;;;;;;;28.30;49.67;100363.03;1716464;82;21202;-79
2022/06/03 12:02:26;;;;;;;10.40;2.60;;;;;;;28.33;50.40;100366.67;1716982;83;21269;-79
2022/06/03 12:05:42;;;;;;;7.70;2.65;;;;;;;28.36;48.96;100357.66;1716502;82;21210;-79
2022/06/03 12:09:08;;;;;;;9.65;3.20;;;;;;;28.35;48.98;100357.39;1715211;82;21222;-79
2022/06/03 12:16:13;;;;;;;22.58;3.17;;;;;;;28.27;49.82;100356.84;1707611;84;21181;-79
2022/06/03 12:19:18;;;;;;;20.08;2.67;;;;;;;28.28;49.48;100357.70;1696316;83;21249;-79
2022/06/03 12:22:41;;;;;;;11.40;2.60;;;;;;;28.21;50.29;100352.39;1696637;84;21173;-78
2022/06/03 12:26:02;;;;;;;11.97;2.37;;;;;;;28.22;51.38;100354.06;1683370;85;21213;-79
2022/06/03 12:29:22;;;;;;;8.20;2.95;;;;;;;28.27;50.67;100351.78;1714321;83;21196;-79
2022/06/03 12:32:32;;;;;;;12.75;2.65;;;;;;;28.29;52.41;100349.53;1700027;83;21176;-79
2022/06/03 12:36:05;;;;;;;12.93;2.80;;;;;;;28.35;53.02;100359.64;1691726;83;21173;-77
2022/06/03 12:39:14;;;;;;;11.53;2.75;;;;;;;28.35;53.22;100346.98;1680234;85;21298;-79
2022/06/03 12:42:21;;;;;;;;;;;;;;;28.41;52.66;100342.14;1663201;85;22154;-79
2022/06/03 12:45:38;;;;;;;11.15;2.12;;;;;;;28.46;50.72;100358.98;1683748;85;20641;-79
2022/06/03 12:48:56;;;;;;;8.25;2.65;;;;;;;28.46;50.42;100350.54;1694335;83;21241;-78
2022/06/03 12:52:08;;;;;;;8.60;2.33;;;;;;;28.39;51.38;100351.45;1691775;85;21685;-78
2022/06/03 12:55:27;;;;;;;6.95;2.47;;;;;;;28.40;51.78;100350.31;1706831;83;21185;-79
2022/06/03 12:58:45;;;;;;;6.90;2.27;;;;;;;28.41;51.06;100347.77;1694596;83;21766;-79
2022/06/03 13:02:13;;;;;;;10.10;2.45;;;;;;;28.39;50.58;100358.48;1690409;83;21203;-79
2022/06/03 13:05:32;;;;;;;6.37;2.40;;;;;;;28.31;50.84;100358.50;1708198;83;21853;-79
2022/06/03 13:12:11;;;;;;;10.30;2.22;;;;;;;28.20;50.41;100354.10;1683911;83;21714;-79
2022/06/03 13:15:34;;;;;;;6.70;2.30;;;;;;;28.16;50.62;100356.66;1702942;83;21203;-88
2022/06/03 13:18:49;;;;;;;4.12;2.00;;;;;;;28.11;51.64;100348.83;1769691;80;21170;-89
2022/06/03 13:22:14;;;;;;;11.55;2.55;;;;;;;28.09;51.51;100350.53;1757276;80;21205;-87
2022/06/03 13:25:28;;;;;;;6.37;2.40;;;;;;;28.06;51.79;100361.52;1765682;80;21829;-89
2022/06/03 13:28:44;;;;;;;9.55;2.35;;;;;;;28.01;52.17;100351.14;1778821;80;21231;-88
2022/06/03 13:32:06;;;;;;;12.25;2.58;;;;;;;27.97;51.88;100351.45;1774608;80;21776;-89
2022/06/03 13:35:41;;;;;;;7.12;2.37;;;;;;;27.84;52.90;100352.09;1749877;80;21165;-89
2022/06/03 13:38:54;;;;;;;13.77;3.10;;;;;;;27.71;52.02;100344.59;1753389;80;21184;-89
2022/06/03 13:45:30;;;;;;;12.35;2.50;;;;;;;27.54;53.28;100355.87;1778502;80;21150;-87
2022/06/03 13:48:52;;;;;;;9.93;3.17;;;;;;;27.54;53.28;100355.87;1765138;80;21156;-88
2022/06/03 13:52:03;;;;;;;8.58;2.58;;;;;;;27.44;53.79;100353.95;1772897;80;21173;-88
2022/06/03 13:55:31;;;;;;;12.23;2.22;;;;;;;27.36;53.75;100358.75;1749619;82;21192;-90
2022/06/03 13:58:43;;;;;;;13.40;3.13;;;;;;;27.25;53.99;100355.98;1739707;82;21235;-89
2022/06/03 14:01:52;;;;;;;12.75;3.10;;;;;;;27.16;54.28;100350.68;1742827;82;21404;-88
2022/06/03 14:05:06;;;;;;;14.35;3.47;;;;;;;27.16;54.76;100347.88;1777392;80;21123;-87
2022/06/03 14:08:30;;;;;;;;;;;;;;;27.19;54.57;100333.81;1783803;80;21735;-88
2022/06/03 14:11:40;;;;;;;14.95;3.12;;;;;;;27.16;55.14;100346.47;1778981;80;20193;-88
2022/06/03 14:15:02;;;;;;;6.10;2.98;;;;;;;27.16;55.14;100346.47;1780672;80;22129;-89
2022/06/03 14:18:08;;;;;;;10.43;3.83;;;;;;;27.16;54.99;100354.05;1761720;80;21812;-88
2022/06/03 14:21:15;;;;;;;13.45;3.70;;;;;;;27.16;55.19;100345.63;1782405;80;21153;-88
2022/06/03 14:24:48;;;;;;;9.70;3.12;;;;;;;27.10;55.93;100340.60;1784446;80;21181;-88
2022/06/03 14:28:14;;;;;;;9.03;3.00;;;;;;;27.10;55.93;100340.60;1783540;80;21738;-89
2022/06/03 14:31:42;;;;;;;10.60;3.15;;;;;;;27.03;56.04;100358.26;1783706;80;21441;-89
2022/06/03 14:34:55;;;;;;;15.23;3.70;;;;;;;26.97;57.17;100331.34;1774028;80;21165;-89
2022/06/03 14:38:16;;;;;;;9.63;4.03;;;;;;;26.88;57.55;100321.81;1749388;80;21812;-89
2022/06/03 14:41:28;;;;;;;11.33;3.55;;;;;;;26.78;58.30;100316.23;1783060;80;21192;-89
2022/06/03 14:44:35;;;;;;;10.08;3.27;;;;;;;26.75;59.26;100318.47;1781675;80;21172;-88
2022/06/03 14:47:47;;;;;;;6.65;2.85;;;;;;;26.77;58.75;100316.77;1775294;80;21791;-88
2022/06/03 14:50:55;;;;;;;10.68;3.02;;;;;;;26.75;57.62;100317.06;1767652;80;21145;-88
2022/06/03 14:54:02;;;;;;;12.80;3.17;;;;;;;26.68;57.69;100317.93;1766190;80;21188;-89
2022/06/03 14:57:10;;;;;;;10.55;2.65;;;;;;;26.57;57.48;100328.87;1765533;80;21212;-89
2022/06/03 15:01:13;;;;;;;10.90;2.30;;;;;;;26.48;59.04;100331.39;1711973;82;21160;-87
2022/06/03 15:04:23;;;;;;;7.60;2.80;;;;;;;26.39;58.61;100328.00;1711323;83;21902;-88
2022/06/03 15:07:39;;;;;;;8.85;2.65;;;;;;;26.27;56.31;100319.05;1712710;83;21248;-88
2022/06/03 15:10:49;;;;;;;12.75;2.27;;;;;;;26.16;56.53;100324.66;1703842;83;21202;-80
2022/06/03 15:13:55;;;;;;;5.87;2.77;;;;;;;26.08;57.26;100341.18;1718557;83;21805;-79
2022/06/03 15:17:04;;;;;;;6.00;2.52;;;;;;;26.02;57.46;100344.55;1727725;82;21651;-79
2022/06/03 15:20:21;;;;;;;7.97;3.45;;;;;;;25.99;57.65;100356.30;1698302;83;21248;-79
2022/06/03 15:23:28;;;;;;;16.87;5.00;;;;;;;25.97;58.46;100375.33;1699926;84;21201;-79
2022/06/03 15:26:37;;;;;;;7.83;3.40;;;;;;;25.93;59.66;100377.87;1699469;84;21850;-79
2022/06/03 15:29:43;;;;;;;12.40;4.58;;;;;;;25.90;60.29;100374.77;1700006;83;21160;-80
2022/06/03 15:32:51;;;;;;;12.90;5.15;;;;;;;25.87;60.65;100397.16;1708933;83;21242;-79
2022/06/03 15:36:17;;;;;;;12.30;4.75;;;;;;;25.81;60.25;100389.03;1718638;83;21170;-79
2022/06/03 15:39:34;;;;;;;11.45;4.90;;;;;;;25.74;59.95;100397.67;1703199;83;21553;-79
2022/06/03 15:42:39;;;;;;;12.68;4.95;;;;;;;25.65;59.60;100400.16;1719100;83;21178;-79
2022/06/03 15:45:47;;;;;;;8.93;4.20;;;;;;;25.57;59.11;100391.44;1687849;85;21171;-79
2022/06/03 15:48:41;;;;;;;16.67;4.22;;;;;;;25.48;59.34;100396.71;1701593;83;21171;-79
2022/06/03 15:51:52;;;;;;;7.87;3.62;;;;;;;25.42;59.32;100405.65;1711050;83;21162;-80
2022/06/03 15:55:05;;;;;;;11.75;4.10;;;;;;;25.37;59.10;100394.98;1723435;82;21742;-79
2022/06/03 15:58:39;;;;;;;14.75;4.72;;;;;;;25.30;59.21;100399.98;1744285;82;21228;-79
2022/06/03 16:02:09;;;;;;;14.65;4.15;;;;;;;25.22;59.05;100399.39;1743972;82;21755;-79
2022/06/03 16:05:36;;;;;;;10.45;3.62;;;;;;;25.15;59.32;100386.18;1739160;82;21216;-79
2022/06/03 16:09:02;;;;;;;8.13;3.55;;;;;;;25.10;59.61;100383.91;1738444;82;21188;-79
2022/06/03 16:12:32;;;;;;;9.98;3.65;;;;;;;25.04;60.41;100389.17;1699709;82;21202;-87